EDT,Max TemperatureF,Mean TemperatureF,Min TemperatureF,Max Dew PointF,MeanDew PointF,Min DewpointF,Max Humidity, Mean Humidity, Min Humidity, Max Sea Level PressureIn, Mean Sea Level PressureIn, Min Sea Level PressureIn, Max VisibilityMiles, Mean VisibilityMiles, Min VisibilityMiles, Max Wind SpeedMPH, Mean Wind SpeedMPH, Max Gust SpeedMPH,PrecipitationIn, CloudCover, Events, WindDirDegrees
2013-8-1,78,72,66,72,68,64,100,91,74,30.05,29.92,29.83,10,5,1,7,3,,0.00,6,,201
2013-8-2,86,74,62,70,64,61,100,77,43,29.99,29.94,29.88,10,7,1,10,2,16,0.00,1,,253
2013-8-3,73,68,62,70,64,61,100,90,69,30.00,29.97,29.95,10,5,2,10,1,,0.00,4,,281
2013-8-4,80,68,57,61,56,48,100,69,36,30.05,29.98,29.93,10,8,1,15,3,23,0.00,2,,316
2013-8-5,78,66,53,63,55,50,94,72,36,30.13,30.08,30.04,10,10,10,6,1,,0.00,1,,278
2013-8-6,71,66,60,64,62,59,94,88,78,30.11,30.08,30.04,10,10,2,7,1,,0.00,7,,149
2013-8-7,80,72,64,72,68,63,94,85,65,30.11,30.08,30.03,10,9,1,9,2,16,0.00,7,,159
2013-8-8,86,78,69,72,70,68,100,85,58,30.07,30.04,30.01,10,7,1,10,3,25,0.00,4,,177
2013-8-9,86,78,71,77,72,70,100,86,62,30.01,29.94,29.88,10,6,0,14,3,28,0.00,3,,240
2013-8-10,80,72,64,70,66,61,100,78,51,30.11,30.05,29.96,10,8,1,9,2,,0.00,2,,296
2013-8-11,82,73,64,70,66,63,100,81,58,30.15,30.09,30.04,10,8,4,8,1,,0.00,4,,146
2013-8-12,86,77,68,72,68,64,94,71,48,30.06,29.98,29.95,10,8,3,8,2,,0.00,1,,314
2013-8-13,82,76,69,72,69,66,94,85,61,29.94,29.82,29.76,10,6,0,14,3,18,0.00,4,,257
2013-8-14,73,64,55,68,52,46,94,65,43,30.12,29.99,29.84,10,10,2,17,6,21,0.00,2,,312
2013-8-15,77,64,50,57,50,43,100,70,31,30.21,30.16,30.12,10,10,7,8,1,,0.00,0,,36
2013-8-16,77,64,50,61,54,50,100,77,41,30.23,30.19,30.16,10,10,7,6,1,,0.00,0,,142
2013-8-17,78,66,53,61,55,52,100,73,44,30.29,30.26,30.23,10,9,4,13,2,16,0.00,0,,101
2013-8-18,71,66,62,63,60,55,94,82,57,30.26,30.23,30.19,10,10,7,7,2,,0.00,5,,37
2013-8-19,73,66,59,66,61,55,100,84,69,30.21,30.15,30.10,10,8,3,7,1,,0.00,2,,217
2013-8-20,86,72,57,70,63,55,94,79,45,30.19,30.15,30.12,10,7,1,7,1,,0.00,3,,220
2013-8-21,87,74,62,72,67,61,100,81,49,30.23,30.17,30.09,10,7,1,9,1,,0.00,2,,186
2013-8-22,87,78,68,72,68,64,100,78,46,30.12,30.04,29.96,10,8,3,12,3,17,0.00,2,,272
2013-8-23,77,67,57,66,62,55,100,81,60,30.14,30.04,29.96,10,8,1,8,1,,0.00,2,,360
2013-8-24,80,66,53,59,55,48,100,70,34,30.37,30.27,30.15,10,9,3,12,3,18,0.00,1,,64
2013-8-25,80,66,51,63,54,48,100,71,39,30.45,30.37,30.30,10,10,10,8,1,,0.00,0,,171
2013-8-26,86,70,53,64,58,52,94,69,35,30.32,30.17,30.03,10,10,10,10,3,16,0.00,0,,243
2013-8-27,89,76,64,72,67,63,94,75,46,30.02,29.95,29.90,10,8,3,12,3,16,0.00,2,,287
2013-8-28,80,74,68,73,69,66,94,90,70,29.94,29.90,29.85,10,4,1,9,1,,0.00,4,,251
2013-8-29,82,75,68,70,67,64,100,80,54,30.06,29.98,29.88,10,7,0,9,3,,0.00,6,,53
2013-8-30,86,75,64,68,66,63,94,78,48,30.07,30.00,29.92,10,8,3,9,2,,0.00,3,,201
2013-8-31,89,76,64,72,67,63,100,76,43,29.93,29.88,29.82,10,8,3,10,3,16,0.00,1,,193